<?xml version="1.0" encoding="UTF-8" standalone="no" ?>
<gpx xmlns="http://www.topografix.com/GPX/1/1" xmlns:xsi="http://www.w3.org/2001/XMLSchema-instance" xsi:schemaLocation="http://www.topografix.com/GPX/1/1 http://www.topografix.com/GPX/1/1/gpx.xsd" version="1.1" creator="VisuGPX - https://www.visugpx.com">
  <metadata>
    <name>Portugal_full</name>
  </metadata>
  <trk>
    <name><![CDATA[Portugal_full_4]]></name>
    <trkseg>
      <trkpt lat="42.29659" lon="-8.65732">
        <ele>92.482</ele>
        <time>2018-07-28T20:58:46Z</time>
        <extensions>
          <visugpx:TrkExtension xmlns:visugpx="https://www.visugpx.com/editgpx/">
            <visugpx:node>3</visugpx:node>
            </visugpx:TrkExtension>
        </extensions>
      </trkpt>
      <trkpt lat="42.29635" lon="-8.65738">
        <ele>91.165</ele>
        <time>2018-07-28T20:58:47Z</time>
      </trkpt>
      <trkpt lat="42.29614" lon="-8.65744">
        <ele>89.287</ele>
        <time>2018-07-28T20:58:48Z</time>
      </trkpt>
      <trkpt lat="42.29592" lon="-8.65753">
        <ele>87.222</ele>
        <time>2018-07-28T20:58:49Z</time>
      </trkpt>
      <trkpt lat="42.29571" lon="-8.65763">
        <ele>85.427</ele>
        <time>2018-07-28T20:58:50Z</time>
      </trkpt>
      <trkpt lat="42.29551" lon="-8.65777">
        <ele>83.625</ele>
        <time>2018-07-28T20:58:51Z</time>
      </trkpt>
      <trkpt lat="42.2953" lon="-8.65792">
        <ele>82.281</ele>
        <time>2018-07-28T20:58:52Z</time>
      </trkpt>
      <trkpt lat="42.2951" lon="-8.65809">
        <ele>81.055</ele>
        <time>2018-07-28T20:58:53Z</time>
      </trkpt>
      <trkpt lat="42.2949" lon="-8.65827">
        <ele>80.307</ele>
        <time>2018-07-28T20:58:54Z</time>
      </trkpt>
      <trkpt lat="42.29471" lon="-8.65847">
        <ele>79.417</ele>
        <time>2018-07-28T20:58:55Z</time>
      </trkpt>
      <trkpt lat="42.29451" lon="-8.65867">
        <ele>78.608</ele>
        <time>2018-07-28T20:58:56Z</time>
      </trkpt>
      <trkpt lat="42.29431" lon="-8.65887">
        <ele>78.067</ele>
        <time>2018-07-28T20:58:57Z</time>
      </trkpt>
      <trkpt lat="42.29413" lon="-8.6591">
        <ele>77.682</ele>
        <time>2018-07-28T20:58:58Z</time>
      </trkpt>
      <trkpt lat="42.29393" lon="-8.65929">
        <ele>76.835</ele>
        <time>2018-07-28T20:58:59Z</time>
      </trkpt>
      <trkpt lat="42.29373" lon="-8.65945">
        <ele>76.197</ele>
        <time>2018-07-28T20:59:00Z</time>
      </trkpt>
      <trkpt lat="42.29354" lon="-8.6596">
        <ele>75.782</ele>
        <time>2018-07-28T20:59:01Z</time>
      </trkpt>
      <trkpt lat="42.29332" lon="-8.65972">
        <ele>75.337</ele>
        <time>2018-07-28T20:59:02Z</time>
      </trkpt>
      <trkpt lat="42.29311" lon="-8.6598">
        <ele>74.575</ele>
        <time>2018-07-28T20:59:03Z</time>
      </trkpt>
      <trkpt lat="42.29289" lon="-8.65987">
        <ele>74.061</ele>
        <time>2018-07-28T20:59:04Z</time>
      </trkpt>
      <trkpt lat="42.29266" lon="-8.65996">
        <ele>73.192</ele>
        <time>2018-07-28T20:59:05Z</time>
      </trkpt>
      <trkpt lat="42.29242" lon="-8.66002">
        <ele>72.673</ele>
        <time>2018-07-28T20:59:06Z</time>
      </trkpt>
      <trkpt lat="42.29216" lon="-8.66005">
        <ele>72.02</ele>
        <time>2018-07-28T20:59:07Z</time>
      </trkpt>
      <trkpt lat="42.29189" lon="-8.66006">
        <ele>71.508</ele>
        <time>2018-07-28T20:59:08Z</time>
      </trkpt>
      <trkpt lat="42.29164" lon="-8.66008">
        <ele>71.251</ele>
        <time>2018-07-28T20:59:09Z</time>
      </trkpt>
      <trkpt lat="42.29138" lon="-8.66011">
        <ele>71.236</ele>
        <time>2018-07-28T20:59:10Z</time>
      </trkpt>
      <trkpt lat="42.29112" lon="-8.66013">
        <ele>71.489</ele>
        <time>2018-07-28T20:59:11Z</time>
      </trkpt>
      <trkpt lat="42.29086" lon="-8.66016">
        <ele>71.831</ele>
        <time>2018-07-28T20:59:12Z</time>
      </trkpt>
      <trkpt lat="42.29058" lon="-8.66018">
        <ele>73.016</ele>
        <time>2018-07-28T20:59:13Z</time>
      </trkpt>
      <trkpt lat="42.2903" lon="-8.66022">
        <ele>74.231</ele>
        <time>2018-07-28T20:59:14Z</time>
      </trkpt>
      <trkpt lat="42.29002" lon="-8.66026">
        <ele>75.359</ele>
        <time>2018-07-28T20:59:15Z</time>
      </trkpt>
      <trkpt lat="42.28972" lon="-8.6603">
        <ele>76.355</ele>
        <time>2018-07-28T20:59:16Z</time>
      </trkpt>
      <trkpt lat="42.28943" lon="-8.66032">
        <ele>77.078</ele>
        <time>2018-07-28T20:59:17Z</time>
      </trkpt>
      <trkpt lat="42.28916" lon="-8.66036">
        <ele>77.033</ele>
        <time>2018-07-28T20:59:18Z</time>
      </trkpt>
      <trkpt lat="42.28889" lon="-8.6604">
        <ele>76.426</ele>
        <time>2018-07-28T20:59:19Z</time>
      </trkpt>
      <trkpt lat="42.28862" lon="-8.66044">
        <ele>76.008</ele>
        <time>2018-07-28T20:59:20Z</time>
      </trkpt>
      <trkpt lat="42.28836" lon="-8.66049">
        <ele>75.679</ele>
        <time>2018-07-28T20:59:21Z</time>
      </trkpt>
      <trkpt lat="42.28806" lon="-8.66056">
        <ele>75.664</ele>
        <time>2018-07-28T20:59:22Z</time>
      </trkpt>
      <trkpt lat="42.28778" lon="-8.66054">
        <ele>75.917</ele>
        <time>2018-07-28T20:59:23Z</time>
      </trkpt>
      <trkpt lat="42.28749" lon="-8.66058">
        <ele>77.549</ele>
        <time>2018-07-28T20:59:24Z</time>
      </trkpt>
      <trkpt lat="42.28719" lon="-8.66061">
        <ele>78.374</ele>
        <time>2018-07-28T20:59:25Z</time>
      </trkpt>
      <trkpt lat="42.2869" lon="-8.66065">
        <ele>78.999</ele>
        <time>2018-07-28T20:59:26Z</time>
      </trkpt>
      <trkpt lat="42.28662" lon="-8.6607">
        <ele>78.957</ele>
        <time>2018-07-28T20:59:27Z</time>
      </trkpt>
      <trkpt lat="42.28633" lon="-8.66072">
        <ele>78.853</ele>
        <time>2018-07-28T20:59:28Z</time>
      </trkpt>
      <trkpt lat="42.28604" lon="-8.66075">
        <ele>78.834</ele>
        <time>2018-07-28T20:59:29Z</time>
      </trkpt>
      <trkpt lat="42.28576" lon="-8.66077">
        <ele>78.355</ele>
        <time>2018-07-28T20:59:30Z</time>
      </trkpt>
      <trkpt lat="42.28546" lon="-8.66083">
        <ele>77.61</ele>
        <time>2018-07-28T20:59:31Z</time>
      </trkpt>
      <trkpt lat="42.28518" lon="-8.66086">
        <ele>76.908</ele>
        <time>2018-07-28T20:59:32Z</time>
      </trkpt>
      <trkpt lat="42.2849" lon="-8.6609">
        <ele>76.635</ele>
        <time>2018-07-28T20:59:33Z</time>
      </trkpt>
      <trkpt lat="42.28463" lon="-8.66093">
        <ele>76.12</ele>
        <time>2018-07-28T20:59:34Z</time>
      </trkpt>
      <trkpt lat="42.28436" lon="-8.66097">
        <ele>76.133</ele>
        <time>2018-07-28T20:59:35Z</time>
      </trkpt>
      <trkpt lat="42.28408" lon="-8.66101">
        <ele>76.485</ele>
        <time>2018-07-28T20:59:36Z</time>
      </trkpt>
      <trkpt lat="42.28381" lon="-8.66101">
        <ele>76.65</ele>
        <time>2018-07-28T20:59:37Z</time>
      </trkpt>
      <trkpt lat="42.28354" lon="-8.66108">
        <ele>76.725</ele>
        <time>2018-07-28T20:59:38Z</time>
      </trkpt>
      <trkpt lat="42.28326" lon="-8.66111">
        <ele>76.523</ele>
        <time>2018-07-28T20:59:39Z</time>
      </trkpt>
      <trkpt lat="42.28297" lon="-8.66115">
        <ele>76.269</ele>
        <time>2018-07-28T20:59:40Z</time>
      </trkpt>
      <trkpt lat="42.28268" lon="-8.6612">
        <ele>76.266</ele>
        <time>2018-07-28T20:59:41Z</time>
      </trkpt>
      <trkpt lat="42.28238" lon="-8.66124">
        <ele>76.529</ele>
        <time>2018-07-28T20:59:42Z</time>
      </trkpt>
      <trkpt lat="42.2821" lon="-8.66128">
        <ele>77.021</ele>
        <time>2018-07-28T20:59:43Z</time>
      </trkpt>
      <trkpt lat="42.28181" lon="-8.66134">
        <ele>77.308</ele>
        <time>2018-07-28T20:59:44Z</time>
      </trkpt>
      <trkpt lat="42.28153" lon="-8.66141">
        <ele>77.328</ele>
        <time>2018-07-28T20:59:45Z</time>
      </trkpt>
      <trkpt lat="42.28123" lon="-8.66148">
        <ele>77.333</ele>
        <time>2018-07-28T20:59:46Z</time>
      </trkpt>
      <trkpt lat="42.28095" lon="-8.66158">
        <ele>77.356</ele>
        <time>2018-07-28T20:59:47Z</time>
      </trkpt>
      <trkpt lat="42.28069" lon="-8.66171">
        <ele>76.718</ele>
        <time>2018-07-28T20:59:48Z</time>
      </trkpt>
      <trkpt lat="42.28045" lon="-8.66186">
        <ele>76.083</ele>
        <time>2018-07-28T20:59:49Z</time>
      </trkpt>
      <trkpt lat="42.28021" lon="-8.66201">
        <ele>75.868</ele>
        <time>2018-07-28T20:59:50Z</time>
      </trkpt>
      <trkpt lat="42.28001" lon="-8.66224">
        <ele>75.886</ele>
        <time>2018-07-28T20:59:51Z</time>
      </trkpt>
      <trkpt lat="42.2798" lon="-8.66246">
        <ele>75.732</ele>
        <time>2018-07-28T20:59:52Z</time>
      </trkpt>
      <trkpt lat="42.27959" lon="-8.6627">
        <ele>76.491</ele>
        <time>2018-07-28T20:59:53Z</time>
      </trkpt>
      <trkpt lat="42.27937" lon="-8.66294">
        <ele>77.281</ele>
        <time>2018-07-28T20:59:54Z</time>
      </trkpt>
      <trkpt lat="42.27916" lon="-8.6632">
        <ele>77.619</ele>
        <time>2018-07-28T20:59:55Z</time>
      </trkpt>
      <trkpt lat="42.27897" lon="-8.66347">
        <ele>79.208</ele>
        <time>2018-07-28T20:59:56Z</time>
      </trkpt>
      <trkpt lat="42.27879" lon="-8.66376">
        <ele>80.321</ele>
        <time>2018-07-28T20:59:57Z</time>
      </trkpt>
      <trkpt lat="42.27863" lon="-8.66406">
        <ele>81.386</ele>
        <time>2018-07-28T20:59:58Z</time>
      </trkpt>
      <trkpt lat="42.27844" lon="-8.66436">
        <ele>82.359</ele>
        <time>2018-07-28T20:59:59Z</time>
      </trkpt>
      <trkpt lat="42.27827" lon="-8.66466">
        <ele>83.461</ele>
        <time>2018-07-28T21:00:00Z</time>
      </trkpt>
      <trkpt lat="42.27806" lon="-8.66492">
        <ele>84.086</ele>
        <time>2018-07-28T21:00:01Z</time>
      </trkpt>
      <trkpt lat="42.27785" lon="-8.66517">
        <ele>84.771</ele>
        <time>2018-07-28T21:00:02Z</time>
      </trkpt>
      <trkpt lat="42.27758" lon="-8.66536">
        <ele>85.799</ele>
        <time>2018-07-28T21:00:03Z</time>
      </trkpt>
      <trkpt lat="42.27733" lon="-8.66552">
        <ele>86.775</ele>
        <time>2018-07-28T21:00:04Z</time>
      </trkpt>
      <trkpt lat="42.27706" lon="-8.66567">
        <ele>87.665</ele>
        <time>2018-07-28T21:00:05Z</time>
      </trkpt>
      <trkpt lat="42.27679" lon="-8.6658">
        <ele>88.568</ele>
        <time>2018-07-28T21:00:06Z</time>
      </trkpt>
      <trkpt lat="42.2765" lon="-8.6659">
        <ele>90.614</ele>
        <time>2018-07-28T21:00:07Z</time>
      </trkpt>
      <trkpt lat="42.27622" lon="-8.66598">
        <ele>91.708</ele>
        <time>2018-07-28T21:00:08Z</time>
      </trkpt>
      <trkpt lat="42.27594" lon="-8.66602">
        <ele>92.558</ele>
        <time>2018-07-28T21:00:09Z</time>
      </trkpt>
      <trkpt lat="42.27567" lon="-8.66604">
        <ele>93.113</ele>
        <time>2018-07-28T21:00:10Z</time>
      </trkpt>
      <trkpt lat="42.27539" lon="-8.66603">
        <ele>93.936</ele>
        <time>2018-07-28T21:00:11Z</time>
      </trkpt>
      <trkpt lat="42.27511" lon="-8.66599">
        <ele>94.218</ele>
        <time>2018-07-28T21:00:12Z</time>
      </trkpt>
      <trkpt lat="42.27484" lon="-8.66594">
        <ele>94.573</ele>
        <time>2018-07-28T21:00:13Z</time>
      </trkpt>
      <trkpt lat="42.27458" lon="-8.66587">
        <ele>94.858</ele>
        <time>2018-07-28T21:00:14Z</time>
      </trkpt>
      <trkpt lat="42.27432" lon="-8.66577">
        <ele>95.376</ele>
        <time>2018-07-28T21:00:15Z</time>
      </trkpt>
      <trkpt lat="42.27407" lon="-8.66566">
        <ele>95.622</ele>
        <time>2018-07-28T21:00:16Z</time>
      </trkpt>
      <trkpt lat="42.27381" lon="-8.66551">
        <ele>96.429</ele>
        <time>2018-07-28T21:00:17Z</time>
      </trkpt>
      <trkpt lat="42.27357" lon="-8.66535">
        <ele>96.9</ele>
        <time>2018-07-28T21:00:18Z</time>
      </trkpt>
      <trkpt lat="42.27333" lon="-8.66516">
        <ele>97.82</ele>
        <time>2018-07-28T21:00:19Z</time>
      </trkpt>
      <trkpt lat="42.27309" lon="-8.66498">
        <ele>98.308</ele>
        <time>2018-07-28T21:00:20Z</time>
      </trkpt>
      <trkpt lat="42.27284" lon="-8.66478">
        <ele>99.254</ele>
        <time>2018-07-28T21:00:21Z</time>
      </trkpt>
      <trkpt lat="42.2726" lon="-8.66459">
        <ele>100.329</ele>
        <time>2018-07-28T21:00:22Z</time>
      </trkpt>
      <trkpt lat="42.27235" lon="-8.6644">
        <ele>100.532</ele>
        <time>2018-07-28T21:00:23Z</time>
      </trkpt>
      <trkpt lat="42.2721" lon="-8.66422">
        <ele>101.294</ele>
        <time>2018-07-28T21:00:24Z</time>
      </trkpt>
      <trkpt lat="42.27184" lon="-8.66408">
        <ele>101.869</ele>
        <time>2018-07-28T21:00:25Z</time>
      </trkpt>
      <trkpt lat="42.27157" lon="-8.66398">
        <ele>102.844</ele>
        <time>2018-07-28T21:00:26Z</time>
      </trkpt>
      <trkpt lat="42.27131" lon="-8.66386">
        <ele>104.362</ele>
        <time>2018-07-28T21:00:27Z</time>
      </trkpt>
      <trkpt lat="42.27102" lon="-8.66385">
        <ele>106.168</ele>
        <time>2018-07-28T21:00:28Z</time>
      </trkpt>
      <trkpt lat="42.27072" lon="-8.66382">
        <ele>107.761</ele>
        <time>2018-07-28T21:00:29Z</time>
      </trkpt>
      <trkpt lat="42.27042" lon="-8.66378">
        <ele>109.521</ele>
        <time>2018-07-28T21:00:30Z</time>
      </trkpt>
      <trkpt lat="42.27013" lon="-8.66375">
        <ele>111.313</ele>
        <time>2018-07-28T21:00:31Z</time>
      </trkpt>
      <trkpt lat="42.26983" lon="-8.66376">
        <ele>112.308</ele>
        <time>2018-07-28T21:00:32Z</time>
      </trkpt>
      <trkpt lat="42.26955" lon="-8.6638">
        <ele>113.388</ele>
        <time>2018-07-28T21:00:33Z</time>
      </trkpt>
      <trkpt lat="42.26926" lon="-8.66388">
        <ele>114.433</ele>
        <time>2018-07-28T21:00:34Z</time>
      </trkpt>
      <trkpt lat="42.26896" lon="-8.66397">
        <ele>115.526</ele>
        <time>2018-07-28T21:00:35Z</time>
      </trkpt>
      <trkpt lat="42.26869" lon="-8.66411">
        <ele>117.588</ele>
        <time>2018-07-28T21:00:36Z</time>
      </trkpt>
      <trkpt lat="42.26841" lon="-8.66424">
        <ele>118.893</ele>
        <time>2018-07-28T21:00:37Z</time>
      </trkpt>
      <trkpt lat="42.26813" lon="-8.66439">
        <ele>120.118</ele>
        <time>2018-07-28T21:00:38Z</time>
      </trkpt>
      <trkpt lat="42.26786" lon="-8.66455">
        <ele>121.666</ele>
        <time>2018-07-28T21:00:39Z</time>
      </trkpt>
      <trkpt lat="42.26758" lon="-8.66475">
        <ele>123.112</ele>
        <time>2018-07-28T21:00:40Z</time>
      </trkpt>
      <trkpt lat="42.26732" lon="-8.66498">
        <ele>124.677</ele>
        <time>2018-07-28T21:00:41Z</time>
      </trkpt>
      <trkpt lat="42.26706" lon="-8.6652">
        <ele>126.161</ele>
        <time>2018-07-28T21:00:42Z</time>
      </trkpt>
      <trkpt lat="42.26682" lon="-8.66551">
        <ele>127.827</ele>
        <time>2018-07-28T21:00:43Z</time>
      </trkpt>
      <trkpt lat="42.26659" lon="-8.66578">
        <ele>129.308</ele>
        <time>2018-07-28T21:00:44Z</time>
      </trkpt>
      <trkpt lat="42.2664" lon="-8.6661">
        <ele>130.239</ele>
        <time>2018-07-28T21:00:45Z</time>
      </trkpt>
      <trkpt lat="42.2662" lon="-8.66642">
        <ele>131.114</ele>
        <time>2018-07-28T21:00:46Z</time>
      </trkpt>
      <trkpt lat="42.26601" lon="-8.66674">
        <ele>131.127</ele>
        <time>2018-07-28T21:00:47Z</time>
      </trkpt>
      <trkpt lat="42.26583" lon="-8.66705">
        <ele>131.159</ele>
        <time>2018-07-28T21:00:48Z</time>
      </trkpt>
      <trkpt lat="42.26565" lon="-8.66737">
        <ele>130.684</ele>
        <time>2018-07-28T21:00:49Z</time>
      </trkpt>
      <trkpt lat="42.26549" lon="-8.66769">
        <ele>130.479</ele>
        <time>2018-07-28T21:00:50Z</time>
      </trkpt>
      <trkpt lat="42.26532" lon="-8.66803">
        <ele>129.887</ele>
        <time>2018-07-28T21:00:51Z</time>
      </trkpt>
      <trkpt lat="42.26515" lon="-8.66831">
        <ele>128.833</ele>
        <time>2018-07-28T21:00:52Z</time>
      </trkpt>
      <trkpt lat="42.26496" lon="-8.6686">
        <ele>128.343</ele>
        <time>2018-07-28T21:00:53Z</time>
      </trkpt>
      <trkpt lat="42.26475" lon="-8.66887">
        <ele>127.664</ele>
        <time>2018-07-28T21:00:54Z</time>
      </trkpt>
      <trkpt lat="42.26453" lon="-8.66916">
        <ele>126.81</ele>
        <time>2018-07-28T21:00:55Z</time>
      </trkpt>
      <trkpt lat="42.2643" lon="-8.66939">
        <ele>126.208</ele>
        <time>2018-07-28T21:00:56Z</time>
      </trkpt>
      <trkpt lat="42.26407" lon="-8.66963">
        <ele>125.756</ele>
        <time>2018-07-28T21:00:57Z</time>
      </trkpt>
      <trkpt lat="42.26382" lon="-8.66985">
        <ele>125.281</ele>
        <time>2018-07-28T21:00:58Z</time>
      </trkpt>
      <trkpt lat="42.26358" lon="-8.67006">
        <ele>125.064</ele>
        <time>2018-07-28T21:00:59Z</time>
      </trkpt>
      <trkpt lat="42.26334" lon="-8.67029">
        <ele>124.656</ele>
        <time>2018-07-28T21:01:00Z</time>
      </trkpt>
      <trkpt lat="42.26309" lon="-8.6705">
        <ele>123.981</ele>
        <time>2018-07-28T21:01:01Z</time>
      </trkpt>
      <trkpt lat="42.26285" lon="-8.67072">
        <ele>123.546</ele>
        <time>2018-07-28T21:01:02Z</time>
      </trkpt>
      <trkpt lat="42.26262" lon="-8.67097">
        <ele>123.074</ele>
        <time>2018-07-28T21:01:03Z</time>
      </trkpt>
      <trkpt lat="42.26239" lon="-8.67121">
        <ele>122.42</ele>
        <time>2018-07-28T21:01:04Z</time>
      </trkpt>
      <trkpt lat="42.26216" lon="-8.67142">
        <ele>121.787</ele>
        <time>2018-07-28T21:01:05Z</time>
      </trkpt>
      <trkpt lat="42.26195" lon="-8.67164">
        <ele>119.842</ele>
        <time>2018-07-28T21:01:06Z</time>
      </trkpt>
      <trkpt lat="42.26176" lon="-8.67189">
        <ele>119.026</ele>
        <time>2018-07-28T21:01:07Z</time>
      </trkpt>
      <trkpt lat="42.26158" lon="-8.67212">
        <ele>117.908</ele>
        <time>2018-07-28T21:01:08Z</time>
      </trkpt>
      <trkpt lat="42.26142" lon="-8.67236">
        <ele>117.03</ele>
        <time>2018-07-28T21:01:09Z</time>
      </trkpt>
      <trkpt lat="42.26126" lon="-8.67263">
        <ele>116.665</ele>
        <time>2018-07-28T21:01:10Z</time>
      </trkpt>
      <trkpt lat="42.26111" lon="-8.67289">
        <ele>116.188</ele>
        <time>2018-07-28T21:01:11Z</time>
      </trkpt>
      <trkpt lat="42.26094" lon="-8.67315">
        <ele>115.62</ele>
        <time>2018-07-28T21:01:12Z</time>
      </trkpt>
      <trkpt lat="42.26078" lon="-8.67342">
        <ele>115.395</ele>
        <time>2018-07-28T21:01:13Z</time>
      </trkpt>
      <trkpt lat="42.26061" lon="-8.67367">
        <ele>114.83</ele>
        <time>2018-07-28T21:01:14Z</time>
      </trkpt>
      <trkpt lat="42.26044" lon="-8.67389">
        <ele>113.778</ele>
        <time>2018-07-28T21:01:15Z</time>
      </trkpt>
      <trkpt lat="42.26028" lon="-8.6741">
        <ele>112.914</ele>
        <time>2018-07-28T21:01:16Z</time>
      </trkpt>
      <trkpt lat="42.26007" lon="-8.67432">
        <ele>112.175</ele>
        <time>2018-07-28T21:01:17Z</time>
      </trkpt>
      <trkpt lat="42.25985" lon="-8.6745">
        <ele>111.428</ele>
        <time>2018-07-28T21:01:18Z</time>
      </trkpt>
      <trkpt lat="42.25962" lon="-8.67467">
        <ele>111.12</ele>
        <time>2018-07-28T21:01:19Z</time>
      </trkpt>
      <trkpt lat="42.25937" lon="-8.67484">
        <ele>111.108</ele>
        <time>2018-07-28T21:01:20Z</time>
      </trkpt>
      <trkpt lat="42.2591" lon="-8.67495">
        <ele>112.469</ele>
        <time>2018-07-28T21:01:21Z</time>
      </trkpt>
      <trkpt lat="42.25883" lon="-8.67504">
        <ele>113.344</ele>
        <time>2018-07-28T21:01:22Z</time>
      </trkpt>
      <trkpt lat="42.25854" lon="-8.67515">
        <ele>114.897</ele>
        <time>2018-07-28T21:01:23Z</time>
      </trkpt>
      <trkpt lat="42.25825" lon="-8.67525">
        <ele>116.649</ele>
        <time>2018-07-28T21:01:24Z</time>
      </trkpt>
      <trkpt lat="42.25797" lon="-8.67532">
        <ele>118.394</ele>
        <time>2018-07-28T21:01:25Z</time>
      </trkpt>
      <trkpt lat="42.2577" lon="-8.67533">
        <ele>120.339</ele>
        <time>2018-07-28T21:01:26Z</time>
      </trkpt>
      <trkpt lat="42.25742" lon="-8.67538">
        <ele>122.647</ele>
        <time>2018-07-28T21:01:27Z</time>
      </trkpt>
      <trkpt lat="42.25714" lon="-8.67542">
        <ele>124.863</ele>
        <time>2018-07-28T21:01:28Z</time>
      </trkpt>
      <trkpt lat="42.25689" lon="-8.67548">
        <ele>125.966</ele>
        <time>2018-07-28T21:01:29Z</time>
      </trkpt>
      <trkpt lat="42.25666" lon="-8.67554">
        <ele>127.029</ele>
        <time>2018-07-28T21:01:30Z</time>
      </trkpt>
      <trkpt lat="42.25642" lon="-8.67564">
        <ele>127.821</ele>
        <time>2018-07-28T21:01:31Z</time>
      </trkpt>
      <trkpt lat="42.25618" lon="-8.67574">
        <ele>128.208</ele>
        <time>2018-07-28T21:01:32Z</time>
      </trkpt>
      <trkpt lat="42.25594" lon="-8.67586">
        <ele>128.398</ele>
        <time>2018-07-28T21:01:33Z</time>
      </trkpt>
      <trkpt lat="42.2557" lon="-8.67601">
        <ele>129.353</ele>
        <time>2018-07-28T21:01:34Z</time>
      </trkpt>
      <trkpt lat="42.25547" lon="-8.67617">
        <ele>132.026</ele>
        <time>2018-07-28T21:01:35Z</time>
      </trkpt>
      <trkpt lat="42.25523" lon="-8.67633">
        <ele>133.518</ele>
        <time>2018-07-28T21:01:36Z</time>
      </trkpt>
      <trkpt lat="42.255" lon="-8.67649">
        <ele>134.943</ele>
        <time>2018-07-28T21:01:37Z</time>
      </trkpt>
      <trkpt lat="42.25479" lon="-8.67666">
        <ele>136.438</ele>
        <time>2018-07-28T21:01:38Z</time>
      </trkpt>
      <trkpt lat="42.25458" lon="-8.67689">
        <ele>138.166</ele>
        <time>2018-07-28T21:01:39Z</time>
      </trkpt>
      <trkpt lat="42.25436" lon="-8.67703">
        <ele>139.642</ele>
        <time>2018-07-28T21:01:40Z</time>
      </trkpt>
      <trkpt lat="42.25416" lon="-8.67726">
        <ele>141.638</ele>
        <time>2018-07-28T21:01:41Z</time>
      </trkpt>
      <trkpt lat="42.25394" lon="-8.67743">
        <ele>143.57</ele>
        <time>2018-07-28T21:01:42Z</time>
      </trkpt>
      <trkpt lat="42.25371" lon="-8.67763">
        <ele>145.417</ele>
        <time>2018-07-28T21:01:43Z</time>
      </trkpt>
      <trkpt lat="42.25027" lon="-8.68082">
        <ele>168.308</ele>
        <time>2018-07-28T21:02:00Z</time>
      </trkpt>
      <trkpt lat="42.25004" lon="-8.68103">
        <ele>169.225</ele>
        <time>2018-07-28T21:02:01Z</time>
      </trkpt>
      <trkpt lat="42.24979" lon="-8.68111">
        <ele>170.56</ele>
        <time>2018-07-28T21:02:02Z</time>
      </trkpt>
      <trkpt lat="42.2496" lon="-8.68125">
        <ele>172.353</ele>
        <time>2018-07-28T21:02:03Z</time>
      </trkpt>
      <trkpt lat="42.2494" lon="-8.68139">
        <ele>174.495</ele>
        <time>2018-07-28T21:02:04Z</time>
      </trkpt>
      <trkpt lat="42.24921" lon="-8.68153">
        <ele>178.48</ele>
        <time>2018-07-28T21:02:05Z</time>
      </trkpt>
      <trkpt lat="42.24904" lon="-8.68168">
        <ele>179.995</ele>
        <time>2018-07-28T21:02:06Z</time>
      </trkpt>
      <trkpt lat="42.24885" lon="-8.6818">
        <ele>181.333</ele>
        <time>2018-07-28T21:02:07Z</time>
      </trkpt>
      <trkpt lat="42.24864" lon="-8.68192">
        <ele>182.259</ele>
        <time>2018-07-28T21:02:08Z</time>
      </trkpt>
      <trkpt lat="42.24843" lon="-8.68204">
        <ele>183.427</ele>
        <time>2018-07-28T21:02:09Z</time>
      </trkpt>
      <trkpt lat="42.24822" lon="-8.68216">
        <ele>184.568</ele>
        <time>2018-07-28T21:02:10Z</time>
      </trkpt>
      <trkpt lat="42.24802" lon="-8.68225">
        <ele>185.814</ele>
        <time>2018-07-28T21:02:11Z</time>
      </trkpt>
      <trkpt lat="42.24779" lon="-8.68237">
        <ele>187.308</ele>
        <time>2018-07-28T21:02:12Z</time>
      </trkpt>
      <trkpt lat="42.24757" lon="-8.68242">
        <ele>188.814</ele>
        <time>2018-07-28T21:02:13Z</time>
      </trkpt>
      <trkpt lat="42.24734" lon="-8.6825">
        <ele>190.469</ele>
        <time>2018-07-28T21:02:14Z</time>
      </trkpt>
      <trkpt lat="42.2471" lon="-8.68259">
        <ele>192.432</ele>
        <time>2018-07-28T21:02:15Z</time>
      </trkpt>
      <trkpt lat="42.24686" lon="-8.68263">
        <ele>194.144</ele>
        <time>2018-07-28T21:02:16Z</time>
      </trkpt>
      <trkpt lat="42.24661" lon="-8.68265">
        <ele>195.789</ele>
        <time>2018-07-28T21:02:17Z</time>
      </trkpt>
      <trkpt lat="42.24637" lon="-8.6827">
        <ele>197.324</ele>
        <time>2018-07-28T21:02:18Z</time>
      </trkpt>
      <trkpt lat="42.24611" lon="-8.6827">
        <ele>198.952</ele>
        <time>2018-07-28T21:02:19Z</time>
      </trkpt>
      <trkpt lat="42.24586" lon="-8.68271">
        <ele>201.568</ele>
        <time>2018-07-28T21:02:20Z</time>
      </trkpt>
      <trkpt lat="42.24561" lon="-8.68272">
        <ele>202.434</ele>
        <time>2018-07-28T21:02:21Z</time>
      </trkpt>
      <trkpt lat="42.24536" lon="-8.68273">
        <ele>203.755</ele>
        <time>2018-07-28T21:02:22Z</time>
      </trkpt>
      <trkpt lat="42.24512" lon="-8.68266">
        <ele>205.21</ele>
        <time>2018-07-28T21:02:23Z</time>
      </trkpt>
      <trkpt lat="42.24487" lon="-8.68262">
        <ele>206.508</ele>
        <time>2018-07-28T21:02:24Z</time>
      </trkpt>
      <trkpt lat="42.24462" lon="-8.68258">
        <ele>208.245</ele>
        <time>2018-07-28T21:02:25Z</time>
      </trkpt>
      <trkpt lat="42.24435" lon="-8.68252">
        <ele>210.43</ele>
        <time>2018-07-28T21:02:26Z</time>
      </trkpt>
      <trkpt lat="42.24409" lon="-8.68247">
        <ele>212.583</ele>
        <time>2018-07-28T21:02:27Z</time>
      </trkpt>
      <trkpt lat="42.24382" lon="-8.68239">
        <ele>215.275</ele>
        <time>2018-07-28T21:02:28Z</time>
      </trkpt>
      <trkpt lat="42.24355" lon="-8.68227">
        <ele>217.96</ele>
        <time>2018-07-28T21:02:29Z</time>
      </trkpt>
      <trkpt lat="42.24329" lon="-8.68212">
        <ele>219.985</ele>
        <time>2018-07-28T21:02:30Z</time>
      </trkpt>
      <trkpt lat="42.24307" lon="-8.68199">
        <ele>221.763</ele>
        <time>2018-07-28T21:02:31Z</time>
      </trkpt>
      <trkpt lat="42.24284" lon="-8.68186">
        <ele>222.959</ele>
        <time>2018-07-28T21:02:32Z</time>
      </trkpt>
      <trkpt lat="42.24265" lon="-8.68168">
        <ele>223.681</ele>
        <time>2018-07-28T21:02:33Z</time>
      </trkpt>
      <trkpt lat="42.24244" lon="-8.68148">
        <ele>225.561</ele>
        <time>2018-07-28T21:02:34Z</time>
      </trkpt>
      <trkpt lat="42.24224" lon="-8.68128">
        <ele>226.817</ele>
        <time>2018-07-28T21:02:35Z</time>
      </trkpt>
      <trkpt lat="42.24206" lon="-8.68109">
        <ele>227.708</ele>
        <time>2018-07-28T21:02:36Z</time>
      </trkpt>
      <trkpt lat="42.24188" lon="-8.68087">
        <ele>228.88</ele>
        <time>2018-07-28T21:02:37Z</time>
      </trkpt>
      <trkpt lat="42.24169" lon="-8.68068">
        <ele>229.765</ele>
        <time>2018-07-28T21:02:38Z</time>
      </trkpt>
      <trkpt lat="42.24148" lon="-8.68052">
        <ele>230.518</ele>
        <time>2018-07-28T21:02:39Z</time>
      </trkpt>
      <trkpt lat="42.24131" lon="-8.68029">
        <ele>231.62</ele>
        <time>2018-07-28T21:02:40Z</time>
      </trkpt>
      <trkpt lat="42.24115" lon="-8.68001">
        <ele>233.435</ele>
        <time>2018-07-28T21:02:41Z</time>
      </trkpt>
      <trkpt lat="42.24097" lon="-8.67975">
        <ele>235.78</ele>
        <time>2018-07-28T21:02:42Z</time>
      </trkpt>
      <trkpt lat="42.24081" lon="-8.67946">
        <ele>238.468</ele>
        <time>2018-07-28T21:02:43Z</time>
      </trkpt>
      <trkpt lat="42.24066" lon="-8.67914">
        <ele>241.584</ele>
        <time>2018-07-28T21:02:44Z</time>
      </trkpt>
      <trkpt lat="42.24053" lon="-8.67881">
        <ele>244.554</ele>
        <time>2018-07-28T21:02:45Z</time>
      </trkpt>
      <trkpt lat="42.24041" lon="-8.67846">
        <ele>247.356</ele>
        <time>2018-07-28T21:02:46Z</time>
      </trkpt>
      <trkpt lat="42.24028" lon="-8.67814">
        <ele>249.811</ele>
        <time>2018-07-28T21:02:47Z</time>
      </trkpt>
      <trkpt lat="42.24016" lon="-8.67781">
        <ele>251.408</ele>
        <time>2018-07-28T21:02:48Z</time>
      </trkpt>
      <trkpt lat="42.24005" lon="-8.67747">
        <ele>253.037</ele>
        <time>2018-07-28T21:02:49Z</time>
      </trkpt>
      <trkpt lat="42.23997" lon="-8.67711">
        <ele>253.632</ele>
        <time>2018-07-28T21:02:50Z</time>
      </trkpt>
      <trkpt lat="42.2399" lon="-8.67677">
        <ele>254.095</ele>
        <time>2018-07-28T21:02:51Z</time>
      </trkpt>
      <trkpt lat="42.23983" lon="-8.67642">
        <ele>254.577</ele>
        <time>2018-07-28T21:02:52Z</time>
      </trkpt>
      <trkpt lat="42.23978" lon="-8.67606">
        <ele>255.432</ele>
        <time>2018-07-28T21:02:53Z</time>
      </trkpt>
      <trkpt lat="42.23973" lon="-8.67571">
        <ele>255.897</ele>
        <time>2018-07-28T21:02:54Z</time>
      </trkpt>
      <trkpt lat="42.23967" lon="-8.67535">
        <ele>255.885</ele>
        <time>2018-07-28T21:02:55Z</time>
      </trkpt>
      <trkpt lat="42.23963" lon="-8.675">
        <ele>255.771</ele>
        <time>2018-07-28T21:02:56Z</time>
        <extensions>
          <visugpx:TrkExtension xmlns:visugpx="https://www.visugpx.com/editgpx/">
            <visugpx:node>2</visugpx:node>
            </visugpx:TrkExtension>
        </extensions>
      </trkpt>
    </trkseg>
  </trk>
</gpx>